ACA104 CYVR-CYYZ
Flight info
| Callsign | ACA104 |
|---|---|
| Flight time | 3h 53m |
| Altitude | 37000 |
| Route | ALNOD DCT IKNIX DCT MEDAK DCT GORAK DCT YBR DCT GERTY DCT AGLIN DCT OTNIK BOXUM7 |
| Aircraft | B789/H-SDE1E2E3FGHIJ2J3J4J5M1RWXY/LB1D1 |
Departure
| Time | 2026-05-05 06:42 |
|---|---|
| Airport | Vancouver International Airport (CYVR) |
Arrival
| Time | 2026-05-05 10:36 |
|---|---|
| Airport | Toronto Pearson International Airport (CYYZ) |
| Time | Latitude | Longitude | Altitude | Speed | Heading |
|---|---|---|---|---|---|
| 2026-05-05 06:15 | 49.19546 | -123.18137 | 24 ft | 0 kts | 177° |
| 2026-05-05 06:29 | 49.19552 | -123.18138 | 24 ft | 2 kts | 179° |
| 2026-05-05 06:29 | 49.19567 | -123.18137 | 24 ft | 2 kts | 187° |
| 2026-05-05 06:30 | 49.19582 | -123.18134 | 24 ft | 2 kts | 193° |
| 2026-05-05 06:30 | 49.19597 | -123.18127 | 24 ft | 2 kts | 200° |
| 2026-05-05 06:30 | 49.19611 | -123.18118 | 24 ft | 2 kts | 206° |
| 2026-05-05 06:30 | 49.19624 | -123.18108 | 24 ft | 2 kts | 212° |
| 2026-05-05 06:31 | 49.19637 | -123.18095 | 24 ft | 2 kts | 214° |
| 2026-05-05 06:31 | 49.19648 | -123.18083 | 24 ft | 0 kts | 213° |
| 2026-05-05 06:31 | 49.19649 | -123.18082 | 24 ft | 0 kts | 213° |
| 2026-05-05 06:33 | 49.19645 | -123.18086 | 24 ft | 1 kts | 216° |
| 2026-05-05 06:33 | 49.19636 | -123.18102 | 24 ft | 2 kts | 235° |
| 2026-05-05 06:33 | 49.19635 | -123.18133 | 24 ft | 3 kts | 285° |
| 2026-05-05 06:33 | 49.19648 | -123.18176 | 24 ft | 4 kts | 300° |
| 2026-05-05 06:34 | 49.19667 | -123.18229 | 24 ft | 6 kts | 296° |
| 2026-05-05 06:34 | 49.19683 | -123.18301 | 23 ft | 7 kts | 283° |
| 2026-05-05 06:34 | 49.19694 | -123.18394 | 23 ft | 10 kts | 281° |
| 2026-05-05 06:34 | 49.19711 | -123.18518 | 20 ft | 13 kts | 284° |
| 2026-05-05 06:35 | 49.19744 | -123.18658 | 20 ft | 14 kts | 284° |
| 2026-05-05 06:35 | 49.19764 | -123.18818 | 20 ft | 15 kts | 280° |
| 2026-05-05 06:35 | 49.19783 | -123.18978 | 20 ft | 13 kts | 280° |
| 2026-05-05 06:35 | 49.19768 | -123.19115 | 20 ft | 14 kts | 215° |
| 2026-05-05 06:36 | 49.19668 | -123.19157 | 20 ft | 15 kts | 189° |
| 2026-05-05 06:36 | 49.19558 | -123.19157 | 20 ft | 16 kts | 157° |
| 2026-05-05 06:36 | 49.19461 | -123.19051 | 20 ft | 17 kts | 143° |
| 2026-05-05 06:36 | 49.19369 | -123.18943 | 20 ft | 14 kts | 142° |
| 2026-05-05 06:37 | 49.19286 | -123.18843 | 20 ft | 15 kts | 142° |
| 2026-05-05 06:37 | 49.19199 | -123.18739 | 22 ft | 15 kts | 141° |
| 2026-05-05 06:37 | 49.19112 | -123.18636 | 24 ft | 15 kts | 142° |
| 2026-05-05 06:37 | 49.19022 | -123.18529 | 24 ft | 16 kts | 138° |
| 2026-05-05 06:38 | 49.18952 | -123.18388 | 24 ft | 17 kts | 107° |
| 2026-05-05 06:38 | 49.18930 | -123.18199 | 24 ft | 17 kts | 99° |
| 2026-05-05 06:38 | 49.18906 | -123.18005 | 24 ft | 18 kts | 99° |
| 2026-05-05 06:38 | 49.18881 | -123.17793 | 21 ft | 20 kts | 100° |
| 2026-05-05 06:39 | 49.18857 | -123.17580 | 20 ft | 17 kts | 100° |
| 2026-05-05 06:39 | 49.18835 | -123.17394 | 20 ft | 17 kts | 100° |
| 2026-05-05 06:39 | 49.18813 | -123.17199 | 20 ft | 18 kts | 100° |
| 2026-05-05 06:39 | 49.18790 | -123.16995 | 20 ft | 19 kts | 100° |
| 2026-05-05 06:40 | 49.18767 | -123.16785 | 20 ft | 19 kts | 105° |
| 2026-05-05 06:40 | 49.18744 | -123.16573 | 20 ft | 20 kts | 100° |
| 2026-05-05 06:40 | 49.18719 | -123.16379 | 20 ft | 16 kts | 102° |
| 2026-05-05 06:40 | 49.18652 | -123.16229 | 20 ft | 17 kts | 142° |
| 2026-05-05 06:41 | 49.18530 | -123.16228 | 20 ft | 18 kts | 203° |
| 2026-05-05 06:41 | 49.18495 | -123.16347 | 20 ft | 0 kts | 279° |
| 2026-05-05 06:41 | 49.18496 | -123.16353 | 20 ft | 3 kts | 279° |
| 2026-05-05 06:41 | 49.18508 | -123.16450 | 20 ft | 23 kts | 281° |
| 2026-05-05 06:42 | 49.18588 | -123.17084 | 21 ft | 94 kts | 280° |
| 2026-05-05 06:42 | 49.18740 | -123.18406 | 24 ft | 154 kts | 280° |
| 2026-05-05 06:42 | 49.18957 | -123.20321 | 64 ft | 194 kts | 280° |
| 2026-05-05 06:42 | 49.19162 | -123.22430 | 773 ft | 189 kts | 277° |
| 2026-05-05 06:43 | 49.19272 | -123.24227 | 1781 ft | 163 kts | 275° |
| 2026-05-05 06:43 | 49.19337 | -123.26162 | 1898 ft | 195 kts | 273° |
| 2026-05-05 06:43 | 49.19369 | -123.28317 | 2455 ft | 199 kts | 271° |
| 2026-05-05 06:43 | 49.19344 | -123.30445 | 3091 ft | 202 kts | 268° |
| 2026-05-05 06:44 | 49.18921 | -123.32556 | 3607 ft | 212 kts | 234° |
| 2026-05-05 06:44 | 49.17733 | -123.33980 | 4189 ft | 213 kts | 202° |
| 2026-05-05 06:44 | 49.16283 | -123.34372 | 4668 ft | 221 kts | 169° |
| 2026-05-05 06:44 | 49.14945 | -123.33133 | 5041 ft | 226 kts | 122° |
| 2026-05-05 06:45 | 49.14573 | -123.30849 | 5599 ft | 223 kts | 79° |
| 2026-05-05 06:45 | 49.14985 | -123.28556 | 6229 ft | 223 kts | 71° |
| 2026-05-05 06:45 | 49.15436 | -123.26237 | 6796 ft | 226 kts | 71° |
| 2026-05-05 06:45 | 49.15892 | -123.23904 | 7347 ft | 230 kts | 71° |
| 2026-05-05 06:46 | 49.16358 | -123.21522 | 7878 ft | 234 kts | 71° |
| 2026-05-05 06:46 | 49.16871 | -123.18928 | 7784 ft | 272 kts | 71° |
| 2026-05-05 06:46 | 49.17442 | -123.16022 | 8336 ft | 284 kts | 72° |
| 2026-05-05 06:46 | 49.17972 | -123.13073 | 9173 ft | 286 kts | 77° |
| 2026-05-05 06:47 | 49.18203 | -123.09969 | 9943 ft | 290 kts | 86° |
| 2026-05-05 06:47 | 49.18198 | -123.06792 | 10369 ft | 307 kts | 91° |
| 2026-05-05 06:47 | 49.18041 | -123.03346 | 10441 ft | 334 kts | 94° |
| 2026-05-05 06:47 | 49.17784 | -122.99674 | 11068 ft | 343 kts | 95° |
| 2026-05-05 06:48 | 49.17491 | -122.96036 | 11888 ft | 344 kts | 96° |
| 2026-05-05 06:48 | 49.17175 | -122.92342 | 12656 ft | 347 kts | 96° |
| 2026-05-05 06:48 | 49.16846 | -122.88635 | 13383 ft | 350 kts | 96° |
| 2026-05-05 06:48 | 49.16512 | -122.84905 | 14078 ft | 353 kts | 96° |
| 2026-05-05 06:49 | 49.16172 | -122.81122 | 14724 ft | 357 kts | 96° |
| 2026-05-05 06:49 | 49.15821 | -122.77249 | 15361 ft | 362 kts | 96° |
| 2026-05-05 06:49 | 49.15470 | -122.73384 | 15975 ft | 366 kts | 95° |
| 2026-05-05 06:49 | 49.15111 | -122.69456 | 16572 ft | 370 kts | 95° |
| 2026-05-05 06:50 | 49.14746 | -122.65461 | 17151 ft | 374 kts | 95° |
| 2026-05-05 06:50 | 49.14379 | -122.61472 | 17711 ft | 378 kts | 95° |
| 2026-05-05 06:50 | 49.14005 | -122.57421 | 18259 ft | 382 kts | 95° |
| 2026-05-05 06:50 | 49.13623 | -122.53297 | 18799 ft | 385 kts | 95° |
| 2026-05-05 06:51 | 49.13240 | -122.49180 | 19316 ft | 389 kts | 95° |
| 2026-05-05 06:51 | 49.12846 | -122.44968 | 19824 ft | 393 kts | 94° |
| 2026-05-05 06:51 | 49.12457 | -122.40789 | 20311 ft | 397 kts | 94° |
| 2026-05-05 06:51 | 49.12053 | -122.36471 | 20796 ft | 401 kts | 94° |
| 2026-05-05 06:52 | 49.11649 | -122.32178 | 21246 ft | 405 kts | 95° |
| 2026-05-05 06:52 | 49.11239 | -122.27840 | 21689 ft | 409 kts | 95° |
| 2026-05-05 06:52 | 49.10821 | -122.23449 | 22122 ft | 414 kts | 95° |
| 2026-05-05 06:52 | 49.10399 | -122.19025 | 22549 ft | 418 kts | 95° |
| 2026-05-05 06:53 | 49.09963 | -122.14498 | 22972 ft | 421 kts | 95° |
| 2026-05-05 06:53 | 49.09535 | -122.10051 | 23381 ft | 425 kts | 95° |
| 2026-05-05 06:53 | 49.09089 | -122.05450 | 23781 ft | 429 kts | 95° |
| 2026-05-05 06:53 | 49.08646 | -122.00903 | 24172 ft | 433 kts | 95° |
| 2026-05-05 06:54 | 49.08192 | -121.96262 | 24555 ft | 436 kts | 95° |
| 2026-05-05 06:54 | 49.07736 | -121.91621 | 24936 ft | 440 kts | 95° |
| 2026-05-05 06:54 | 49.07266 | -121.86857 | 25311 ft | 443 kts | 95° |
| 2026-05-05 06:54 | 49.06796 | -121.82114 | 25691 ft | 446 kts | 95° |
| 2026-05-05 06:55 | 49.06320 | -121.77327 | 26056 ft | 450 kts | 95° |
| 2026-05-05 06:55 | 49.05842 | -121.72550 | 26404 ft | 453 kts | 95° |
| 2026-05-05 06:55 | 49.05395 | -121.67700 | 26754 ft | 454 kts | 90° |
| 2026-05-05 06:55 | 49.05582 | -121.62804 | 27071 ft | 452 kts | 79° |
| 2026-05-05 06:56 | 49.05946 | -121.57980 | 27417 ft | 455 kts | 79° |
| 2026-05-05 06:56 | 49.06353 | -121.53084 | 27739 ft | 458 kts | 78° |
| 2026-05-05 06:56 | 49.06776 | -121.48165 | 28064 ft | 461 kts | 78° |
| 2026-05-05 06:56 | 49.07206 | -121.43270 | 28385 ft | 463 kts | 78° |
| 2026-05-05 06:57 | 49.07648 | -121.38286 | 28762 ft | 465 kts | 78° |
| 2026-05-05 06:57 | 49.08086 | -121.33345 | 29164 ft | 465 kts | 78° |
| 2026-05-05 06:57 | 49.08532 | -121.28338 | 29554 ft | 465 kts | 78° |
| 2026-05-05 06:57 | 49.08974 | -121.23366 | 29918 ft | 466 kts | 78° |
| 2026-05-05 06:58 | 49.09412 | -121.18411 | 30273 ft | 466 kts | 78° |
| 2026-05-05 06:58 | 49.09854 | -121.13416 | 30598 ft | 467 kts | 78° |
| 2026-05-05 06:58 | 49.10294 | -121.08417 | 30896 ft | 468 kts | 78° |
| 2026-05-05 06:58 | 49.10733 | -121.03414 | 31219 ft | 469 kts | 78° |
| 2026-05-05 06:59 | 49.11167 | -120.98417 | 31543 ft | 469 kts | 78° |
| 2026-05-05 06:59 | 49.11598 | -120.93445 | 31849 ft | 470 kts | 78° |
| 2026-05-05 06:59 | 49.12033 | -120.88404 | 32133 ft | 470 kts | 78° |
| 2026-05-05 06:59 | 49.12461 | -120.83424 | 32422 ft | 471 kts | 78° |
| 2026-05-05 07:00 | 49.12889 | -120.78398 | 32730 ft | 471 kts | 78° |
| 2026-05-05 07:00 | 49.13317 | -120.73372 | 33024 ft | 470 kts | 78° |
| 2026-05-05 07:00 | 49.13740 | -120.68377 | 33287 ft | 471 kts | 78° |
| 2026-05-05 07:00 | 49.14163 | -120.63341 | 33575 ft | 471 kts | 78° |
| 2026-05-05 07:01 | 49.14582 | -120.58321 | 33840 ft | 471 kts | 78° |
| 2026-05-05 07:01 | 49.15007 | -120.53223 | 34059 ft | 472 kts | 78° |
| 2026-05-05 07:01 | 49.15420 | -120.48218 | 34334 ft | 471 kts | 78° |
| 2026-05-05 07:01 | 49.15836 | -120.43169 | 34605 ft | 470 kts | 78° |
| 2026-05-05 07:02 | 49.16248 | -120.38127 | 34856 ft | 470 kts | 78° |
| 2026-05-05 07:02 | 49.16659 | -120.33067 | 35101 ft | 469 kts | 79° |
| 2026-05-05 07:02 | 49.17061 | -120.28099 | 35332 ft | 469 kts | 79° |
| 2026-05-05 07:02 | 49.17468 | -120.23032 | 35561 ft | 468 kts | 79° |
| 2026-05-05 07:03 | 49.17867 | -120.18054 | 35752 ft | 468 kts | 79° |
| 2026-05-05 07:03 | 49.18270 | -120.13024 | 35949 ft | 468 kts | 78° |
| 2026-05-05 07:03 | 49.18662 | -120.08069 | 36153 ft | 467 kts | 79° |
| 2026-05-05 07:03 | 49.19057 | -120.03024 | 36344 ft | 467 kts | 79° |
| 2026-05-05 07:04 | 49.19445 | -119.98047 | 36522 ft | 467 kts | 79° |
| 2026-05-05 07:04 | 49.19835 | -119.93044 | 36684 ft | 467 kts | 79° |
| 2026-05-05 07:04 | 49.20219 | -119.88075 | 36826 ft | 467 kts | 79° |
| 2026-05-05 07:04 | 49.20605 | -119.83032 | 36986 ft | 467 kts | 79° |
| 2026-05-05 07:05 | 49.20988 | -119.78014 | 37148 ft | 467 kts | 79° |
| 2026-05-05 07:05 | 49.21370 | -119.72991 | 37300 ft | 467 kts | 79° |
| 2026-05-05 07:05 | 49.21749 | -119.67988 | 37423 ft | 467 kts | 79° |
| 2026-05-05 07:05 | 49.22122 | -119.63007 | 37573 ft | 467 kts | 79° |
| 2026-05-05 07:06 | 49.22499 | -119.57955 | 37707 ft | 467 kts | 78° |
| 2026-05-05 07:06 | 49.22867 | -119.53004 | 37828 ft | 467 kts | 79° |
| 2026-05-05 07:06 | 49.23241 | -119.47938 | 37896 ft | 469 kts | 79° |
| 2026-05-05 07:07 | 49.23981 | -119.37831 | 37902 ft | 476 kts | 79° |
| 2026-05-05 07:07 | 49.24726 | -119.27512 | 37897 ft | 483 kts | 79° |
| 2026-05-05 07:08 | 49.25845 | -119.17214 | 37898 ft | 486 kts | 74° |
| 2026-05-05 07:08 | 49.27189 | -119.06797 | 37897 ft | 494 kts | 74° |
| 2026-05-05 07:09 | 49.28550 | -118.96238 | 37893 ft | 501 kts | 74° |
| 2026-05-05 07:09 | 49.29922 | -118.85541 | 37893 ft | 509 kts | 75° |
| 2026-05-05 07:10 | 49.31316 | -118.74597 | 37901 ft | 517 kts | 75° |
| 2026-05-05 07:10 | 49.32710 | -118.63520 | 37905 ft | 525 kts | 75° |
| 2026-05-05 07:11 | 49.34117 | -118.52264 | 37911 ft | 534 kts | 75° |
| 2026-05-05 07:11 | 49.35530 | -118.40872 | 37911 ft | 539 kts | 75° |
| 2026-05-05 07:12 | 49.36946 | -118.29369 | 37901 ft | 538 kts | 76° |
| 2026-05-05 07:12 | 49.38347 | -118.17853 | 37923 ft | 537 kts | 76° |
| 2026-05-05 07:13 | 49.39728 | -118.06446 | 37924 ft | 538 kts | 76° |
| 2026-05-05 07:13 | 49.41107 | -117.94939 | 37921 ft | 538 kts | 76° |
| 2026-05-05 07:14 | 49.42475 | -117.83442 | 37921 ft | 538 kts | 76° |
| 2026-05-05 07:14 | 49.43827 | -117.71944 | 37921 ft | 538 kts | 76° |
| 2026-05-05 07:15 | 49.45170 | -117.60456 | 37927 ft | 538 kts | 76° |
| 2026-05-05 07:15 | 49.46499 | -117.48956 | 37946 ft | 538 kts | 76° |
| 2026-05-05 07:16 | 49.47819 | -117.37446 | 37962 ft | 538 kts | 76° |
| 2026-05-05 07:16 | 49.49126 | -117.25943 | 37967 ft | 538 kts | 77° |
| 2026-05-05 07:17 | 49.50427 | -117.14375 | 37992 ft | 539 kts | 77° |
| 2026-05-05 07:17 | 49.51709 | -117.02822 | 38022 ft | 541 kts | 76° |
| 2026-05-05 07:18 | 49.52988 | -116.91195 | 38051 ft | 545 kts | 76° |
| 2026-05-05 07:18 | 49.54269 | -116.79512 | 38066 ft | 548 kts | 75° |
| 2026-05-05 07:19 | 49.55541 | -116.67790 | 38066 ft | 547 kts | 76° |
| 2026-05-05 07:19 | 49.56806 | -116.56005 | 38068 ft | 547 kts | 76° |
| 2026-05-05 07:20 | 49.58049 | -116.44282 | 38069 ft | 547 kts | 76° |
| 2026-05-05 07:20 | 49.59281 | -116.32582 | 38062 ft | 546 kts | 76° |
| 2026-05-05 07:21 | 49.60504 | -116.20798 | 38061 ft | 547 kts | 76° |
| 2026-05-05 07:21 | 49.61716 | -116.09046 | 38062 ft | 547 kts | 77° |
| 2026-05-05 07:22 | 49.62910 | -115.97308 | 38063 ft | 547 kts | 76° |
| 2026-05-05 07:22 | 49.64098 | -115.85531 | 38064 ft | 547 kts | 76° |
| 2026-05-05 07:23 | 49.65272 | -115.73740 | 38063 ft | 546 kts | 76° |
| 2026-05-05 07:23 | 49.66439 | -115.61929 | 38068 ft | 548 kts | 76° |
| 2026-05-05 07:24 | 49.67587 | -115.50156 | 38067 ft | 547 kts | 76° |
| 2026-05-05 07:24 | 49.68736 | -115.38288 | 38069 ft | 548 kts | 76° |
| 2026-05-05 07:25 | 49.69862 | -115.26489 | 38058 ft | 547 kts | 77° |
| 2026-05-05 07:25 | 49.70980 | -115.14633 | 38058 ft | 548 kts | 77° |
| 2026-05-05 07:26 | 49.72076 | -115.02830 | 38061 ft | 549 kts | 77° |
| 2026-05-05 07:26 | 49.73174 | -114.90930 | 38066 ft | 549 kts | 76° |
| 2026-05-05 07:27 | 49.74256 | -114.79107 | 38105 ft | 549 kts | 76° |
| 2026-05-05 07:27 | 49.75328 | -114.67230 | 38138 ft | 549 kts | 76° |
| 2026-05-05 07:28 | 49.76393 | -114.55302 | 38137 ft | 550 kts | 76° |
| 2026-05-05 07:28 | 49.77443 | -114.43404 | 38141 ft | 550 kts | 76° |
| 2026-05-05 07:29 | 49.78477 | -114.31499 | 38132 ft | 549 kts | 77° |
| 2026-05-05 07:29 | 49.79497 | -114.19627 | 38129 ft | 549 kts | 77° |
| 2026-05-05 07:30 | 49.80507 | -114.07721 | 38135 ft | 551 kts | 77° |
| 2026-05-05 07:30 | 49.82005 | -113.89793 | 38133 ft | 550 kts | 77° |
| 2026-05-05 07:31 | 49.82984 | -113.77889 | 38134 ft | 550 kts | 77° |
| 2026-05-05 07:31 | 49.83955 | -113.65945 | 38138 ft | 549 kts | 77° |
| 2026-05-05 07:32 | 49.84909 | -113.54015 | 38139 ft | 550 kts | 77° |
| 2026-05-05 07:32 | 49.85851 | -113.42097 | 38141 ft | 550 kts | 77° |
| 2026-05-05 07:33 | 49.86788 | -113.30120 | 38136 ft | 550 kts | 78° |
| 2026-05-05 07:33 | 49.87711 | -113.18109 | 38139 ft | 551 kts | 78° |
| 2026-05-05 07:34 | 49.88617 | -113.06158 | 38139 ft | 551 kts | 78° |
| 2026-05-05 07:34 | 49.89507 | -112.94263 | 38140 ft | 549 kts | 78° |
| 2026-05-05 07:35 | 49.90387 | -112.82358 | 38144 ft | 543 kts | 78° |
| 2026-05-05 07:35 | 49.91244 | -112.70532 | 38147 ft | 542 kts | 78° |
| 2026-05-05 07:36 | 49.92091 | -112.58763 | 38149 ft | 544 kts | 78° |
| 2026-05-05 07:36 | 49.92929 | -112.46863 | 38147 ft | 544 kts | 78° |
| 2026-05-05 07:37 | 49.93755 | -112.34995 | 38148 ft | 544 kts | 78° |
| 2026-05-05 07:37 | 49.94563 | -112.23206 | 38143 ft | 543 kts | 79° |
| 2026-05-05 07:38 | 49.95363 | -112.11358 | 38141 ft | 544 kts | 79° |
| 2026-05-05 07:38 | 49.96149 | -111.99513 | 38140 ft | 544 kts | 79° |
| 2026-05-05 07:39 | 49.96926 | -111.87640 | 38138 ft | 544 kts | 79° |
| 2026-05-05 07:39 | 49.97689 | -111.75800 | 38140 ft | 544 kts | 79° |
| 2026-05-05 07:40 | 49.98445 | -111.63889 | 38146 ft | 545 kts | 79° |
| 2026-05-05 07:40 | 49.99184 | -111.51987 | 38144 ft | 544 kts | 79° |
| 2026-05-05 07:41 | 49.99913 | -111.40106 | 38145 ft | 545 kts | 79° |
| 2026-05-05 07:41 | 50.00628 | -111.28230 | 38137 ft | 545 kts | 80° |
| 2026-05-05 07:42 | 50.01333 | -111.16357 | 38138 ft | 545 kts | 80° |
| 2026-05-05 07:42 | 50.02018 | -111.04451 | 38138 ft | 542 kts | 80° |
| 2026-05-05 07:43 | 50.02687 | -110.92641 | 38138 ft | 540 kts | 79° |
| 2026-05-05 07:43 | 50.03352 | -110.80832 | 38142 ft | 539 kts | 79° |
| 2026-05-05 07:44 | 50.04005 | -110.69069 | 38138 ft | 540 kts | 79° |
| 2026-05-05 07:44 | 50.04464 | -110.57261 | 38141 ft | 541 kts | 82° |
| 2026-05-05 07:45 | 50.04756 | -110.45293 | 38144 ft | 542 kts | 82° |
| 2026-05-05 07:45 | 50.05009 | -110.33400 | 38140 ft | 542 kts | 83° |
| 2026-05-05 07:46 | 50.05247 | -110.21523 | 38136 ft | 543 kts | 83° |
| 2026-05-05 07:46 | 50.05470 | -110.09617 | 38138 ft | 543 kts | 83° |
| 2026-05-05 07:47 | 50.05677 | -109.97720 | 38141 ft | 543 kts | 83° |
| 2026-05-05 07:47 | 50.05874 | -109.85790 | 38140 ft | 542 kts | 83° |
| 2026-05-05 07:48 | 50.06062 | -109.73824 | 38140 ft | 543 kts | 83° |
| 2026-05-05 07:48 | 50.06237 | -109.61864 | 38145 ft | 543 kts | 83° |
| 2026-05-05 07:49 | 50.06396 | -109.49945 | 38144 ft | 543 kts | 83° |
| 2026-05-05 07:49 | 50.06546 | -109.38009 | 38137 ft | 543 kts | 83° |
| 2026-05-05 07:50 | 50.06681 | -109.26180 | 38127 ft | 544 kts | 84° |
| 2026-05-05 07:50 | 50.06806 | -109.14183 | 38116 ft | 541 kts | 84° |
| 2026-05-05 07:51 | 50.06916 | -109.02452 | 38085 ft | 530 kts | 84° |
| 2026-05-05 07:51 | 50.07015 | -108.90887 | 38064 ft | 523 kts | 84° |
| 2026-05-05 07:52 | 50.07101 | -108.79378 | 38070 ft | 525 kts | 84° |
| 2026-05-05 07:52 | 50.07173 | -108.67901 | 38068 ft | 525 kts | 84° |
| 2026-05-05 07:53 | 50.07236 | -108.56306 | 38070 ft | 525 kts | 84° |
| 2026-05-05 07:53 | 50.07288 | -108.44714 | 38072 ft | 525 kts | 84° |
| 2026-05-05 07:54 | 50.07327 | -108.33205 | 38067 ft | 526 kts | 85° |
| 2026-05-05 07:54 | 50.07357 | -108.21645 | 38066 ft | 526 kts | 85° |
| 2026-05-05 07:55 | 50.07372 | -108.10046 | 38066 ft | 526 kts | 85° |
| 2026-05-05 07:55 | 50.07378 | -107.98499 | 38066 ft | 526 kts | 85° |
| 2026-05-05 07:56 | 50.07372 | -107.86900 | 38066 ft | 526 kts | 85° |
| 2026-05-05 07:56 | 50.07354 | -107.75337 | 38068 ft | 526 kts | 85° |
| 2026-05-05 07:57 | 50.07326 | -107.63784 | 38068 ft | 526 kts | 85° |
| 2026-05-05 07:57 | 50.07281 | -107.52098 | 38067 ft | 525 kts | 85° |
| 2026-05-05 07:58 | 50.07230 | -107.40523 | 38070 ft | 525 kts | 85° |
| 2026-05-05 07:58 | 50.07168 | -107.28987 | 38063 ft | 525 kts | 86° |
| 2026-05-05 07:59 | 50.07095 | -107.17529 | 38064 ft | 525 kts | 86° |
| 2026-05-05 07:59 | 50.07007 | -107.05913 | 38067 ft | 526 kts | 86° |
| 2026-05-05 08:00 | 50.06903 | -106.94338 | 38066 ft | 523 kts | 85° |
| 2026-05-05 08:00 | 50.06791 | -106.82913 | 38067 ft | 517 kts | 85° |
| 2026-05-05 08:01 | 50.06675 | -106.71606 | 38064 ft | 515 kts | 84° |
| 2026-05-05 08:01 | 50.06551 | -106.60211 | 38068 ft | 516 kts | 84° |
| 2026-05-05 08:02 | 50.06411 | -106.48803 | 38067 ft | 517 kts | 85° |
| 2026-05-05 08:02 | 50.06259 | -106.37479 | 38068 ft | 516 kts | 85° |
| 2026-05-05 08:03 | 50.06096 | -106.26085 | 38057 ft | 516 kts | 85° |
| 2026-05-05 08:03 | 50.05922 | -106.14741 | 38025 ft | 516 kts | 85° |
| 2026-05-05 08:04 | 50.05737 | -106.03387 | 38001 ft | 516 kts | 85° |
| 2026-05-05 08:04 | 50.05539 | -105.91923 | 38003 ft | 517 kts | 85° |
| 2026-05-05 08:05 | 50.05331 | -105.80561 | 38001 ft | 517 kts | 85° |
| 2026-05-05 08:05 | 50.05113 | -105.69233 | 38003 ft | 517 kts | 85° |
| 2026-05-05 08:06 | 50.04882 | -105.57822 | 38004 ft | 517 kts | 85° |
| 2026-05-05 08:06 | 50.04642 | -105.46458 | 38005 ft | 518 kts | 85° |
| 2026-05-05 08:07 | 50.04389 | -105.35107 | 38005 ft | 517 kts | 85° |
| 2026-05-05 08:07 | 50.04128 | -105.23774 | 38001 ft | 518 kts | 86° |
| 2026-05-05 08:08 | 50.03852 | -105.12387 | 38001 ft | 518 kts | 86° |
| 2026-05-05 08:08 | 50.03558 | -105.00982 | 38000 ft | 517 kts | 85° |
| 2026-05-05 08:09 | 50.03258 | -104.89623 | 38000 ft | 517 kts | 85° |
| 2026-05-05 08:09 | 50.02955 | -104.78305 | 38000 ft | 516 kts | 84° |
| 2026-05-05 08:10 | 50.02642 | -104.66962 | 38000 ft | 515 kts | 85° |
| 2026-05-05 08:10 | 50.02314 | -104.55593 | 38002 ft | 516 kts | 85° |
| 2026-05-05 08:11 | 50.01973 | -104.44241 | 38002 ft | 517 kts | 85° |
| 2026-05-05 08:11 | 50.01619 | -104.32877 | 37998 ft | 516 kts | 85° |
| 2026-05-05 08:12 | 50.01260 | -104.21558 | 37999 ft | 518 kts | 85° |
| 2026-05-05 08:12 | 50.00885 | -104.10223 | 38000 ft | 516 kts | 85° |
| 2026-05-05 08:13 | 50.00662 | -103.98879 | 38000 ft | 512 kts | 83° |
| 2026-05-05 08:13 | 50.00561 | -103.87618 | 37998 ft | 512 kts | 83° |
| 2026-05-05 08:14 | 50.00457 | -103.76356 | 37993 ft | 513 kts | 83° |
| 2026-05-05 08:14 | 50.00343 | -103.65138 | 37984 ft | 512 kts | 83° |
| 2026-05-05 08:15 | 50.00219 | -103.53844 | 37976 ft | 513 kts | 83° |
| 2026-05-05 08:15 | 50.00085 | -103.42558 | 37968 ft | 513 kts | 83° |
| 2026-05-05 08:16 | 49.99938 | -103.31291 | 37962 ft | 513 kts | 84° |
| 2026-05-05 08:16 | 49.99782 | -103.20049 | 37959 ft | 514 kts | 84° |
| 2026-05-05 08:17 | 49.99609 | -103.08750 | 37961 ft | 509 kts | 83° |
| 2026-05-05 08:17 | 49.99430 | -102.97688 | 37963 ft | 503 kts | 83° |
| 2026-05-05 08:18 | 49.99248 | -102.86697 | 37958 ft | 499 kts | 82° |
| 2026-05-05 08:18 | 49.99062 | -102.75652 | 37966 ft | 501 kts | 82° |
| 2026-05-05 08:19 | 49.98857 | -102.64642 | 37963 ft | 502 kts | 83° |
| 2026-05-05 08:19 | 49.98639 | -102.53666 | 37968 ft | 502 kts | 83° |
| 2026-05-05 08:20 | 49.98411 | -102.42625 | 37965 ft | 503 kts | 83° |
| 2026-05-05 08:20 | 49.98174 | -102.31583 | 37964 ft | 501 kts | 84° |
| 2026-05-05 08:21 | 49.97925 | -102.20492 | 37961 ft | 504 kts | 83° |
| 2026-05-05 08:21 | 49.97666 | -102.09460 | 37962 ft | 503 kts | 83° |
| 2026-05-05 08:22 | 49.97398 | -101.98422 | 37963 ft | 504 kts | 83° |
| 2026-05-05 08:22 | 49.97116 | -101.87372 | 37961 ft | 503 kts | 83° |
| 2026-05-05 08:23 | 49.96829 | -101.76372 | 37964 ft | 504 kts | 84° |
| 2026-05-05 08:23 | 49.96529 | -101.65395 | 37947 ft | 503 kts | 83° |
| 2026-05-05 08:24 | 49.96217 | -101.54290 | 37924 ft | 504 kts | 83° |
| 2026-05-05 08:24 | 49.95896 | -101.43240 | 37919 ft | 505 kts | 83° |
| 2026-05-05 08:25 | 49.95561 | -101.32186 | 37907 ft | 504 kts | 84° |
| 2026-05-05 08:25 | 49.95219 | -101.21097 | 37907 ft | 505 kts | 84° |
| 2026-05-05 08:26 | 49.94865 | -101.10071 | 37904 ft | 505 kts | 84° |
| 2026-05-05 08:26 | 49.94503 | -100.99021 | 37914 ft | 505 kts | 84° |
| 2026-05-05 08:27 | 49.94129 | -100.88026 | 37906 ft | 498 kts | 84° |
| 2026-05-05 08:27 | 49.93750 | -100.77121 | 37914 ft | 492 kts | 85° |
| 2026-05-05 08:28 | 49.93361 | -100.66321 | 37913 ft | 491 kts | 84° |
| 2026-05-05 08:28 | 49.92966 | -100.55528 | 37912 ft | 492 kts | 85° |
| 2026-05-05 08:29 | 49.92561 | -100.44772 | 37911 ft | 493 kts | 85° |
| 2026-05-05 08:30 | 49.91931 | -100.28536 | 37911 ft | 494 kts | 85° |
| 2026-05-05 08:30 | 49.91499 | -100.17713 | 37906 ft | 495 kts | 85° |
| 2026-05-05 08:31 | 49.91053 | -100.06859 | 37907 ft | 493 kts | 85° |
| 2026-05-05 08:31 | 49.90592 | -99.96040 | 37906 ft | 495 kts | 87° |
| 2026-05-05 08:32 | 49.89778 | -99.85147 | 37909 ft | 500 kts | 89° |
| 2026-05-05 08:32 | 49.88910 | -99.74349 | 37907 ft | 499 kts | 89° |
| 2026-05-05 08:33 | 49.88021 | -99.63519 | 37910 ft | 499 kts | 89° |
| 2026-05-05 08:33 | 49.87112 | -99.52613 | 37913 ft | 498 kts | 89° |
| 2026-05-05 08:34 | 49.86200 | -99.41814 | 37914 ft | 499 kts | 89° |
| 2026-05-05 08:34 | 49.85273 | -99.30988 | 37910 ft | 499 kts | 90° |
| 2026-05-05 08:35 | 49.84338 | -99.20161 | 37910 ft | 499 kts | 90° |
| 2026-05-05 08:35 | 49.83388 | -99.09310 | 37910 ft | 500 kts | 90° |
| 2026-05-05 08:36 | 49.82426 | -98.98489 | 37910 ft | 497 kts | 89° |
| 2026-05-05 08:36 | 49.81458 | -98.87678 | 37909 ft | 496 kts | 89° |
| 2026-05-05 08:37 | 49.80491 | -98.76926 | 37910 ft | 497 kts | 89° |
| 2026-05-05 08:37 | 49.79513 | -98.66196 | 37908 ft | 497 kts | 89° |
| 2026-05-05 08:38 | 49.78519 | -98.55410 | 37901 ft | 498 kts | 89° |
| 2026-05-05 08:38 | 49.77512 | -98.44616 | 37887 ft | 497 kts | 89° |
| 2026-05-05 08:39 | 49.76505 | -98.33920 | 37874 ft | 497 kts | 89° |
| 2026-05-05 08:39 | 49.75476 | -98.23107 | 37876 ft | 498 kts | 90° |
| 2026-05-05 08:40 | 49.74444 | -98.12354 | 37874 ft | 499 kts | 90° |
| 2026-05-05 08:40 | 49.73393 | -98.01536 | 37877 ft | 498 kts | 90° |
| 2026-05-05 08:41 | 49.72338 | -97.90788 | 37879 ft | 498 kts | 90° |
| 2026-05-05 08:41 | 49.71271 | -97.80012 | 37877 ft | 498 kts | 90° |
| 2026-05-05 08:42 | 49.70202 | -97.69329 | 37877 ft | 499 kts | 90° |
| 2026-05-05 08:42 | 49.69111 | -97.58524 | 37878 ft | 498 kts | 90° |
| 2026-05-05 08:43 | 49.68013 | -97.47774 | 37873 ft | 495 kts | 90° |
| 2026-05-05 08:43 | 49.66922 | -97.37165 | 37876 ft | 495 kts | 90° |
| 2026-05-05 08:44 | 49.65810 | -97.26443 | 37882 ft | 496 kts | 90° |
| 2026-05-05 08:44 | 49.64688 | -97.15746 | 37874 ft | 497 kts | 90° |
| 2026-05-05 08:45 | 49.63562 | -97.05108 | 37875 ft | 493 kts | 90° |
| 2026-05-05 08:45 | 49.62434 | -96.94539 | 37877 ft | 492 kts | 90° |
| 2026-05-05 08:46 | 49.61291 | -96.83930 | 37879 ft | 490 kts | 90° |
| 2026-05-05 08:46 | 49.60148 | -96.73412 | 37879 ft | 491 kts | 90° |
| 2026-05-05 08:47 | 49.58985 | -96.62825 | 37879 ft | 490 kts | 91° |
| 2026-05-05 08:47 | 49.57829 | -96.52360 | 37877 ft | 491 kts | 90° |
| 2026-05-05 08:48 | 49.56646 | -96.41761 | 37873 ft | 491 kts | 91° |
| 2026-05-05 08:48 | 49.55459 | -96.31213 | 37854 ft | 492 kts | 91° |
| 2026-05-05 08:49 | 49.54253 | -96.20591 | 37840 ft | 493 kts | 91° |
| 2026-05-05 08:49 | 49.53050 | -96.10078 | 37842 ft | 493 kts | 91° |
| 2026-05-05 08:50 | 49.51825 | -95.99468 | 37842 ft | 494 kts | 91° |
| 2026-05-05 08:50 | 49.50592 | -95.88889 | 37845 ft | 493 kts | 91° |
| 2026-05-05 08:51 | 49.49354 | -95.78361 | 37843 ft | 492 kts | 91° |
| 2026-05-05 08:51 | 49.48105 | -95.67792 | 37840 ft | 493 kts | 91° |
| 2026-05-05 08:52 | 49.46841 | -95.57205 | 37832 ft | 494 kts | 91° |
| 2026-05-05 08:52 | 49.45576 | -95.46687 | 37833 ft | 493 kts | 91° |
| 2026-05-05 08:53 | 49.44293 | -95.36108 | 37835 ft | 493 kts | 91° |
| 2026-05-05 08:53 | 49.43009 | -95.25594 | 37837 ft | 495 kts | 92° |
| 2026-05-05 08:54 | 49.41702 | -95.14996 | 37834 ft | 496 kts | 92° |
| 2026-05-05 08:54 | 49.40390 | -95.04439 | 37837 ft | 494 kts | 92° |
| 2026-05-05 08:55 | 49.39074 | -94.93841 | 37818 ft | 495 kts | 93° |
| 2026-05-05 08:55 | 49.37749 | -94.83308 | 37794 ft | 495 kts | 94° |
| 2026-05-05 08:56 | 49.36406 | -94.72771 | 37778 ft | 496 kts | 94° |
| 2026-05-05 08:56 | 49.35039 | -94.62167 | 37772 ft | 494 kts | 94° |
| 2026-05-05 08:57 | 49.33686 | -94.51698 | 37760 ft | 494 kts | 94° |
| 2026-05-05 08:57 | 49.32319 | -94.41190 | 37763 ft | 496 kts | 94° |
| 2026-05-05 08:58 | 49.30938 | -94.30659 | 37767 ft | 495 kts | 95° |
| 2026-05-05 08:58 | 49.29549 | -94.20139 | 37765 ft | 493 kts | 95° |
| 2026-05-05 08:59 | 49.28160 | -94.09709 | 37766 ft | 494 kts | 95° |
| 2026-05-05 08:59 | 49.26759 | -93.99255 | 37764 ft | 494 kts | 95° |
| 2026-05-05 09:00 | 49.25353 | -93.88822 | 37768 ft | 493 kts | 95° |
| 2026-05-05 09:00 | 49.23932 | -93.78381 | 37763 ft | 494 kts | 95° |
| 2026-05-05 09:01 | 49.22491 | -93.67850 | 37755 ft | 495 kts | 95° |
| 2026-05-05 09:01 | 49.21050 | -93.57400 | 37757 ft | 494 kts | 95° |
| 2026-05-05 09:02 | 49.19307 | -93.47040 | 37764 ft | 500 kts | 101° |
| 2026-05-05 09:02 | 49.17183 | -93.36736 | 37757 ft | 499 kts | 101° |
| 2026-05-05 09:03 | 49.15016 | -93.26478 | 37758 ft | 501 kts | 102° |
| 2026-05-05 09:03 | 49.12822 | -93.16206 | 37758 ft | 500 kts | 102° |
| 2026-05-05 09:04 | 49.10617 | -93.05923 | 37749 ft | 501 kts | 102° |
| 2026-05-05 09:04 | 49.08424 | -92.95740 | 37732 ft | 497 kts | 104° |
| 2026-05-05 09:05 | 49.06232 | -92.85635 | 37728 ft | 495 kts | 105° |
| 2026-05-05 09:05 | 49.04002 | -92.75481 | 37739 ft | 496 kts | 105° |
| 2026-05-05 09:06 | 49.01781 | -92.65383 | 37752 ft | 496 kts | 105° |
| 2026-05-05 09:06 | 48.99547 | -92.55263 | 37765 ft | 496 kts | 105° |
| 2026-05-05 09:07 | 48.97316 | -92.45202 | 37774 ft | 496 kts | 105° |
| 2026-05-05 09:07 | 48.95058 | -92.35074 | 37783 ft | 496 kts | 105° |
| 2026-05-05 09:08 | 48.92796 | -92.24974 | 37783 ft | 496 kts | 106° |
| 2026-05-05 09:08 | 48.90512 | -92.14820 | 37783 ft | 496 kts | 106° |
| 2026-05-05 09:09 | 48.88241 | -92.04775 | 37777 ft | 496 kts | 106° |
| 2026-05-05 09:09 | 48.85957 | -91.94720 | 37777 ft | 496 kts | 106° |
| 2026-05-05 09:10 | 48.83662 | -91.84662 | 37778 ft | 496 kts | 106° |
| 2026-05-05 09:10 | 48.81369 | -91.74660 | 37778 ft | 496 kts | 106° |
| 2026-05-05 09:11 | 48.79044 | -91.64568 | 37774 ft | 497 kts | 106° |
| 2026-05-05 09:11 | 48.76718 | -91.54514 | 37739 ft | 496 kts | 106° |
| 2026-05-05 09:12 | 48.74383 | -91.44473 | 37713 ft | 496 kts | 106° |
| 2026-05-05 09:12 | 48.72057 | -91.34515 | 37705 ft | 496 kts | 107° |
| 2026-05-05 09:13 | 48.69694 | -91.24443 | 37706 ft | 497 kts | 107° |
| 2026-05-05 09:13 | 48.67335 | -91.14420 | 37697 ft | 497 kts | 107° |
| 2026-05-05 09:14 | 48.64984 | -91.04449 | 37672 ft | 496 kts | 109° |
| 2026-05-05 09:14 | 48.62630 | -90.94552 | 37645 ft | 490 kts | 109° |
| 2026-05-05 09:15 | 48.60268 | -90.84707 | 37642 ft | 490 kts | 109° |
| 2026-05-05 09:15 | 48.57908 | -90.74892 | 37643 ft | 491 kts | 109° |
| 2026-05-05 09:16 | 48.55530 | -90.65038 | 37642 ft | 490 kts | 109° |
| 2026-05-05 09:16 | 48.53146 | -90.55200 | 37642 ft | 490 kts | 109° |
| 2026-05-05 09:17 | 48.50763 | -90.45406 | 37643 ft | 491 kts | 109° |
| 2026-05-05 09:17 | 48.48366 | -90.35597 | 37643 ft | 490 kts | 109° |
| 2026-05-05 09:18 | 48.45958 | -90.25786 | 37642 ft | 490 kts | 110° |
| 2026-05-05 09:18 | 48.43541 | -90.15982 | 37645 ft | 491 kts | 110° |
| 2026-05-05 09:19 | 48.41139 | -90.06283 | 37649 ft | 490 kts | 110° |
| 2026-05-05 09:19 | 48.38698 | -89.96470 | 37651 ft | 491 kts | 110° |
| 2026-05-05 09:20 | 48.36279 | -89.86786 | 37653 ft | 491 kts | 110° |
| 2026-05-05 09:20 | 48.33836 | -89.77046 | 37659 ft | 490 kts | 110° |
| 2026-05-05 09:21 | 48.31391 | -89.67345 | 37661 ft | 491 kts | 110° |
| 2026-05-05 09:21 | 48.28936 | -89.57642 | 37661 ft | 491 kts | 110° |
| 2026-05-05 09:22 | 48.26462 | -89.47909 | 37661 ft | 490 kts | 110° |
| 2026-05-05 09:22 | 48.23801 | -89.38233 | 37661 ft | 490 kts | 112° |
| 2026-05-05 09:23 | 48.21112 | -89.28702 | 37661 ft | 491 kts | 113° |
| 2026-05-05 09:23 | 48.18389 | -89.19147 | 37661 ft | 490 kts | 113° |
| 2026-05-05 09:24 | 48.15665 | -89.09641 | 37661 ft | 491 kts | 113° |
| 2026-05-05 09:24 | 48.12912 | -89.00076 | 37659 ft | 491 kts | 113° |
| 2026-05-05 09:25 | 48.10151 | -88.90508 | 37662 ft | 495 kts | 114° |
| 2026-05-05 09:25 | 48.07366 | -88.80895 | 37660 ft | 492 kts | 114° |
| 2026-05-05 09:26 | 48.04588 | -88.71378 | 37659 ft | 490 kts | 114° |
| 2026-05-05 09:26 | 48.01813 | -88.61913 | 37661 ft | 490 kts | 114° |
| 2026-05-05 09:27 | 47.99036 | -88.52462 | 37660 ft | 491 kts | 114° |
| 2026-05-05 09:27 | 47.96248 | -88.43010 | 37660 ft | 490 kts | 114° |
| 2026-05-05 09:28 | 47.93447 | -88.33548 | 37660 ft | 490 kts | 115° |
| 2026-05-05 09:28 | 47.90653 | -88.24146 | 37659 ft | 491 kts | 115° |
| 2026-05-05 09:29 | 47.87833 | -88.14693 | 37661 ft | 491 kts | 115° |
| 2026-05-05 09:29 | 47.84995 | -88.05217 | 37661 ft | 491 kts | 115° |
| 2026-05-05 09:30 | 47.82173 | -87.95829 | 37661 ft | 491 kts | 115° |
| 2026-05-05 09:30 | 47.79324 | -87.86390 | 37661 ft | 491 kts | 115° |
| 2026-05-05 09:31 | 47.76493 | -87.77039 | 37662 ft | 490 kts | 115° |
| 2026-05-05 09:31 | 47.73623 | -87.67600 | 37662 ft | 491 kts | 115° |
| 2026-05-05 09:32 | 47.70758 | -87.58216 | 37661 ft | 490 kts | 115° |
| 2026-05-05 09:32 | 47.67880 | -87.48816 | 37662 ft | 491 kts | 115° |
| 2026-05-05 09:33 | 47.64996 | -87.39441 | 37663 ft | 491 kts | 115° |
| 2026-05-05 09:33 | 47.62109 | -87.30087 | 37668 ft | 490 kts | 116° |
| 2026-05-05 09:34 | 47.59222 | -87.20767 | 37674 ft | 490 kts | 116° |
| 2026-05-05 09:34 | 47.56321 | -87.11435 | 37678 ft | 490 kts | 116° |
| 2026-05-05 09:35 | 47.53421 | -87.02123 | 37679 ft | 490 kts | 116° |
| 2026-05-05 09:35 | 47.49047 | -86.88156 | 37679 ft | 487 kts | 118° |
| 2026-05-05 09:36 | 47.46118 | -86.78876 | 37680 ft | 486 kts | 118° |
| 2026-05-05 09:36 | 47.43191 | -86.69637 | 37679 ft | 486 kts | 118° |
| 2026-05-05 09:37 | 47.40272 | -86.60438 | 37678 ft | 486 kts | 118° |
| 2026-05-05 09:37 | 47.37356 | -86.51285 | 37675 ft | 486 kts | 118° |
| 2026-05-05 09:38 | 47.34427 | -86.42117 | 37673 ft | 486 kts | 118° |
| 2026-05-05 09:38 | 47.31478 | -86.32928 | 37666 ft | 486 kts | 118° |
| 2026-05-05 09:39 | 47.28533 | -86.23778 | 37657 ft | 486 kts | 118° |
| 2026-05-05 09:39 | 47.25589 | -86.14663 | 37650 ft | 486 kts | 118° |
| 2026-05-05 09:40 | 47.22622 | -86.05516 | 37650 ft | 486 kts | 118° |
| 2026-05-05 09:40 | 47.19674 | -85.96454 | 37649 ft | 486 kts | 118° |
| 2026-05-05 09:41 | 47.16688 | -85.87312 | 37650 ft | 486 kts | 118° |
| 2026-05-05 09:41 | 47.13720 | -85.78252 | 37649 ft | 486 kts | 118° |
| 2026-05-05 09:42 | 47.10733 | -85.69170 | 37650 ft | 486 kts | 118° |
| 2026-05-05 09:42 | 47.07739 | -85.60100 | 37650 ft | 486 kts | 118° |
| 2026-05-05 09:43 | 47.04745 | -85.51061 | 37659 ft | 486 kts | 118° |
| 2026-05-05 09:43 | 47.01727 | -85.41970 | 37668 ft | 488 kts | 118° |
| 2026-05-05 09:44 | 46.98690 | -85.32857 | 37667 ft | 490 kts | 120° |
| 2026-05-05 09:44 | 46.95642 | -85.23752 | 37665 ft | 492 kts | 120° |
| 2026-05-05 09:45 | 46.92566 | -85.14589 | 37660 ft | 495 kts | 120° |
| 2026-05-05 09:45 | 46.89452 | -85.05339 | 37649 ft | 497 kts | 121° |
| 2026-05-05 09:46 | 46.86331 | -84.96114 | 37642 ft | 499 kts | 122° |
| 2026-05-05 09:46 | 46.83216 | -84.86950 | 37637 ft | 498 kts | 122° |
| 2026-05-05 09:47 | 46.80062 | -84.77703 | 37637 ft | 498 kts | 122° |
| 2026-05-05 09:47 | 46.76936 | -84.68562 | 37637 ft | 498 kts | 122° |
| 2026-05-05 09:48 | 46.73787 | -84.59383 | 37638 ft | 498 kts | 122° |
| 2026-05-05 09:48 | 46.70619 | -84.50182 | 37638 ft | 498 kts | 122° |
| 2026-05-05 09:49 | 46.67445 | -84.40993 | 37638 ft | 498 kts | 122° |
| 2026-05-05 09:49 | 46.64290 | -84.31892 | 37633 ft | 497 kts | 122° |
| 2026-05-05 09:50 | 46.61121 | -84.22781 | 37633 ft | 497 kts | 122° |
| 2026-05-05 09:50 | 46.57949 | -84.13693 | 37633 ft | 497 kts | 122° |
| 2026-05-05 09:51 | 46.54781 | -84.04649 | 37633 ft | 497 kts | 122° |
| 2026-05-05 09:51 | 46.51585 | -83.95556 | 37634 ft | 497 kts | 122° |
| 2026-05-05 09:52 | 46.48397 | -83.86516 | 37637 ft | 497 kts | 122° |
| 2026-05-05 09:52 | 46.45182 | -83.77428 | 37642 ft | 497 kts | 122° |
| 2026-05-05 09:53 | 46.41930 | -83.68386 | 37638 ft | 495 kts | 125° |
| 2026-05-05 09:53 | 46.38202 | -83.59872 | 37642 ft | 491 kts | 129° |
| 2026-05-05 09:54 | 46.34294 | -83.51588 | 37643 ft | 491 kts | 130° |
| 2026-05-05 09:54 | 46.30322 | -83.43392 | 37644 ft | 490 kts | 130° |
| 2026-05-05 09:55 | 46.26317 | -83.35219 | 37644 ft | 490 kts | 130° |
| 2026-05-05 09:55 | 46.22289 | -83.27045 | 37638 ft | 489 kts | 131° |
| 2026-05-05 09:56 | 46.18284 | -83.18951 | 37630 ft | 489 kts | 131° |
| 2026-05-05 09:56 | 46.14253 | -83.10828 | 37511 ft | 482 kts | 131° |
| 2026-05-05 09:57 | 46.12297 | -83.06892 | 36777 ft | 481 kts | 131° |
| 2026-05-05 09:57 | 46.10303 | -83.02896 | 35821 ft | 483 kts | 131° |
| 2026-05-05 09:57 | 46.08313 | -82.98909 | 34861 ft | 486 kts | 131° |
| 2026-05-05 09:57 | 46.06306 | -82.94890 | 33918 ft | 487 kts | 131° |
| 2026-05-05 09:58 | 46.04305 | -82.90894 | 32997 ft | 487 kts | 131° |
| 2026-05-05 09:58 | 46.02294 | -82.86884 | 32071 ft | 487 kts | 131° |
| 2026-05-05 09:58 | 46.00280 | -82.82873 | 31130 ft | 486 kts | 131° |
| 2026-05-05 09:58 | 45.98245 | -82.78830 | 30639 ft | 494 kts | 131° |
| 2026-05-05 09:59 | 45.96211 | -82.74791 | 30107 ft | 494 kts | 131° |
| 2026-05-05 09:59 | 45.94163 | -82.70728 | 29563 ft | 492 kts | 131° |
| 2026-05-05 09:59 | 45.92126 | -82.66693 | 29024 ft | 492 kts | 131° |
| 2026-05-05 09:59 | 45.90086 | -82.62659 | 28487 ft | 492 kts | 131° |
| 2026-05-05 10:00 | 45.88018 | -82.58576 | 27961 ft | 493 kts | 131° |
| 2026-05-05 10:00 | 45.85970 | -82.54536 | 27441 ft | 493 kts | 131° |
| 2026-05-05 10:00 | 45.83927 | -82.50513 | 26925 ft | 494 kts | 131° |
| 2026-05-05 10:00 | 45.81863 | -82.46457 | 26401 ft | 493 kts | 130° |
| 2026-05-05 10:01 | 45.79816 | -82.42433 | 25874 ft | 490 kts | 130° |
| 2026-05-05 10:01 | 45.77776 | -82.38429 | 25343 ft | 485 kts | 130° |
| 2026-05-05 10:01 | 45.75773 | -82.34504 | 24816 ft | 481 kts | 131° |
| 2026-05-05 10:01 | 45.73764 | -82.30573 | 24632 ft | 476 kts | 131° |
| 2026-05-05 10:02 | 45.71794 | -82.26724 | 24620 ft | 477 kts | 131° |
| 2026-05-05 10:02 | 45.69792 | -82.22820 | 24618 ft | 478 kts | 131° |
| 2026-05-05 10:02 | 45.67789 | -82.18917 | 24617 ft | 479 kts | 131° |
| 2026-05-05 10:02 | 45.65794 | -82.15038 | 24616 ft | 479 kts | 131° |
| 2026-05-05 10:03 | 45.63786 | -82.11146 | 24616 ft | 478 kts | 131° |
| 2026-05-05 10:03 | 45.61599 | -82.07411 | 24610 ft | 474 kts | 137° |
| 2026-05-05 10:03 | 45.59266 | -82.04020 | 24617 ft | 472 kts | 140° |
| 2026-05-05 10:03 | 45.56885 | -82.00669 | 24615 ft | 472 kts | 140° |
| 2026-05-05 10:04 | 45.54509 | -81.97400 | 24616 ft | 472 kts | 141° |
| 2026-05-05 10:04 | 45.52092 | -81.94112 | 24615 ft | 472 kts | 141° |
| 2026-05-05 10:04 | 45.49672 | -81.90841 | 24615 ft | 472 kts | 141° |
| 2026-05-05 10:04 | 45.47229 | -81.87558 | 24615 ft | 471 kts | 141° |
| 2026-05-05 10:05 | 45.44825 | -81.84337 | 24615 ft | 471 kts | 141° |
| 2026-05-05 10:05 | 45.42414 | -81.81116 | 24615 ft | 471 kts | 141° |
| 2026-05-05 10:05 | 45.39990 | -81.77883 | 24615 ft | 472 kts | 141° |
| 2026-05-05 10:05 | 45.37561 | -81.74651 | 24615 ft | 471 kts | 141° |
| 2026-05-05 10:06 | 45.35134 | -81.71425 | 24614 ft | 471 kts | 141° |
| 2026-05-05 10:06 | 45.32691 | -81.68183 | 24614 ft | 471 kts | 141° |
| 2026-05-05 10:06 | 45.30248 | -81.64945 | 24614 ft | 471 kts | 141° |
| 2026-05-05 10:06 | 45.27824 | -81.61737 | 24614 ft | 472 kts | 141° |
| 2026-05-05 10:07 | 45.25393 | -81.58525 | 24614 ft | 472 kts | 141° |
| 2026-05-05 10:07 | 45.22948 | -81.55297 | 24614 ft | 471 kts | 141° |
| 2026-05-05 10:07 | 45.20490 | -81.52055 | 24614 ft | 471 kts | 141° |
| 2026-05-05 10:07 | 45.18070 | -81.48869 | 24613 ft | 472 kts | 141° |
| 2026-05-05 10:08 | 45.15628 | -81.45650 | 24615 ft | 472 kts | 140° |
| 2026-05-05 10:08 | 45.13195 | -81.42407 | 24608 ft | 471 kts | 141° |
| 2026-05-05 10:08 | 45.10764 | -81.39236 | 24613 ft | 472 kts | 141° |
| 2026-05-05 10:08 | 45.08294 | -81.35991 | 24613 ft | 473 kts | 141° |
| 2026-05-05 10:09 | 45.05853 | -81.32798 | 24609 ft | 474 kts | 142° |
| 2026-05-05 10:09 | 45.03383 | -81.29549 | 24607 ft | 476 kts | 142° |
| 2026-05-05 10:09 | 45.00898 | -81.26317 | 24609 ft | 477 kts | 143° |
| 2026-05-05 10:09 | 44.98408 | -81.23080 | 24607 ft | 479 kts | 143° |
| 2026-05-05 10:10 | 44.95902 | -81.19815 | 24607 ft | 482 kts | 143° |
| 2026-05-05 10:10 | 44.93427 | -81.16597 | 24608 ft | 481 kts | 143° |
| 2026-05-05 10:10 | 44.90895 | -81.13312 | 24608 ft | 482 kts | 143° |
| 2026-05-05 10:10 | 44.88365 | -81.10039 | 24619 ft | 483 kts | 143° |
| 2026-05-05 10:11 | 44.85862 | -81.06802 | 24618 ft | 480 kts | 143° |
| 2026-05-05 10:11 | 44.83397 | -81.03614 | 24617 ft | 478 kts | 143° |
| 2026-05-05 10:11 | 44.80899 | -81.00386 | 24617 ft | 478 kts | 143° |
| 2026-05-05 10:11 | 44.78419 | -80.97188 | 24617 ft | 476 kts | 144° |
| 2026-05-05 10:12 | 44.75916 | -80.93960 | 24620 ft | 475 kts | 144° |
| 2026-05-05 10:12 | 44.73431 | -80.90758 | 24617 ft | 474 kts | 144° |
| 2026-05-05 10:12 | 44.70976 | -80.87604 | 24621 ft | 473 kts | 144° |
| 2026-05-05 10:12 | 44.68486 | -80.84409 | 24179 ft | 473 kts | 144° |
| 2026-05-05 10:13 | 44.66045 | -80.81278 | 23697 ft | 468 kts | 144° |
| 2026-05-05 10:13 | 44.63603 | -80.78148 | 23211 ft | 464 kts | 144° |
| 2026-05-05 10:13 | 44.61188 | -80.75056 | 22730 ft | 462 kts | 144° |
| 2026-05-05 10:13 | 44.58786 | -80.71988 | 22250 ft | 460 kts | 144° |
| 2026-05-05 10:14 | 44.56403 | -80.68944 | 21770 ft | 456 kts | 144° |
| 2026-05-05 10:14 | 44.54027 | -80.65911 | 21287 ft | 453 kts | 144° |
| 2026-05-05 10:14 | 44.51678 | -80.62919 | 20808 ft | 451 kts | 143° |
| 2026-05-05 10:14 | 44.49298 | -80.59890 | 20320 ft | 447 kts | 143° |
| 2026-05-05 10:15 | 44.46994 | -80.56961 | 19845 ft | 444 kts | 143° |
| 2026-05-05 10:15 | 44.44669 | -80.54008 | 19361 ft | 442 kts | 143° |
| 2026-05-05 10:15 | 44.42372 | -80.51094 | 18880 ft | 439 kts | 143° |
| 2026-05-05 10:15 | 44.40058 | -80.48161 | 18651 ft | 435 kts | 143° |
| 2026-05-05 10:16 | 44.37791 | -80.45292 | 18638 ft | 436 kts | 143° |
| 2026-05-05 10:16 | 44.35506 | -80.42403 | 18637 ft | 437 kts | 143° |
| 2026-05-05 10:16 | 44.33203 | -80.39495 | 18370 ft | 439 kts | 143° |
| 2026-05-05 10:16 | 44.30902 | -80.36594 | 17740 ft | 435 kts | 143° |
| 2026-05-05 10:17 | 44.28626 | -80.33726 | 17123 ft | 431 kts | 144° |
| 2026-05-05 10:17 | 44.26374 | -80.30891 | 16502 ft | 428 kts | 143° |
| 2026-05-05 10:17 | 44.24141 | -80.28084 | 15883 ft | 425 kts | 143° |
| 2026-05-05 10:17 | 44.21932 | -80.25310 | 15268 ft | 422 kts | 143° |
| 2026-05-05 10:18 | 44.19705 | -80.22516 | 14643 ft | 419 kts | 143° |
| 2026-05-05 10:18 | 44.17533 | -80.19791 | 14030 ft | 416 kts | 143° |
| 2026-05-05 10:18 | 44.15340 | -80.17038 | 13407 ft | 413 kts | 143° |
| 2026-05-05 10:18 | 44.13187 | -80.14339 | 12794 ft | 410 kts | 143° |
| 2026-05-05 10:19 | 44.11032 | -80.11637 | 12625 ft | 406 kts | 143° |
| 2026-05-05 10:19 | 44.08903 | -80.08973 | 12608 ft | 407 kts | 143° |
| 2026-05-05 10:19 | 44.06739 | -80.06267 | 12607 ft | 408 kts | 143° |
| 2026-05-05 10:19 | 44.04589 | -80.03585 | 12606 ft | 408 kts | 143° |
| 2026-05-05 10:20 | 44.02428 | -80.00971 | 12599 ft | 406 kts | 146° |
| 2026-05-05 10:20 | 44.00075 | -79.98695 | 12609 ft | 404 kts | 151° |
| 2026-05-05 10:20 | 43.97697 | -79.96499 | 12547 ft | 404 kts | 152° |
| 2026-05-05 10:20 | 43.95336 | -79.94390 | 12252 ft | 388 kts | 152° |
| 2026-05-05 10:21 | 43.93082 | -79.92382 | 11754 ft | 377 kts | 152° |
| 2026-05-05 10:21 | 43.90864 | -79.90421 | 11205 ft | 369 kts | 152° |
| 2026-05-05 10:21 | 43.88671 | -79.88485 | 10659 ft | 361 kts | 152° |
| 2026-05-05 10:21 | 43.86538 | -79.86600 | 10121 ft | 354 kts | 152° |
| 2026-05-05 10:22 | 43.84549 | -79.84587 | 9587 ft | 352 kts | 143° |
| 2026-05-05 10:22 | 43.82715 | -79.82301 | 9058 ft | 346 kts | 142° |
| 2026-05-05 10:22 | 43.80947 | -79.80042 | 8506 ft | 337 kts | 141° |
| 2026-05-05 10:22 | 43.79257 | -79.77837 | 7939 ft | 317 kts | 141° |
| 2026-05-05 10:23 | 43.77631 | -79.75928 | 7356 ft | 298 kts | 151° |
| 2026-05-05 10:23 | 43.75880 | -79.74495 | 6801 ft | 286 kts | 143° |
| 2026-05-05 10:23 | 43.75117 | -79.71944 | 6319 ft | 289 kts | 94° |
| 2026-05-05 10:23 | 43.74868 | -79.69213 | 5828 ft | 284 kts | 117° |
| 2026-05-05 10:24 | 43.73940 | -79.66801 | 5335 ft | 284 kts | 113° |
| 2026-05-05 10:24 | 43.73885 | -79.63982 | 4826 ft | 296 kts | 76° |
| 2026-05-05 10:24 | 43.74990 | -79.61606 | 4637 ft | 290 kts | 39° |
| 2026-05-05 10:24 | 43.76828 | -79.60448 | 4650 ft | 287 kts | 11° |
| 2026-05-05 10:25 | 43.78753 | -79.59631 | 4608 ft | 286 kts | 21° |
| 2026-05-05 10:25 | 43.80604 | -79.58423 | 4613 ft | 288 kts | 27° |
| 2026-05-05 10:25 | 43.82356 | -79.57028 | 4612 ft | 288 kts | 30° |
| 2026-05-05 10:25 | 43.84058 | -79.55533 | 4601 ft | 277 kts | 32° |
| 2026-05-05 10:26 | 43.85642 | -79.54070 | 4639 ft | 267 kts | 33° |
| 2026-05-05 10:26 | 43.87199 | -79.52597 | 4611 ft | 265 kts | 33° |
| 2026-05-05 10:26 | 43.88731 | -79.51129 | 4614 ft | 266 kts | 34° |
| 2026-05-05 10:26 | 43.90251 | -79.49622 | 4608 ft | 264 kts | 39° |
| 2026-05-05 10:27 | 43.91550 | -79.47887 | 4647 ft | 242 kts | 45° |
| 2026-05-05 10:27 | 43.92720 | -79.46226 | 4636 ft | 233 kts | 46° |
| 2026-05-05 10:27 | 43.93861 | -79.44580 | 4612 ft | 232 kts | 46° |
| 2026-05-05 10:27 | 43.94987 | -79.42941 | 4626 ft | 223 kts | 47° |
| 2026-05-05 10:28 | 43.96061 | -79.41289 | 4586 ft | 224 kts | 54° |
| 2026-05-05 10:28 | 43.96415 | -79.39334 | 4860 ft | 199 kts | 100° |
| 2026-05-05 10:28 | 43.95831 | -79.37518 | 4962 ft | 203 kts | 135° |
| 2026-05-05 10:28 | 43.94649 | -79.36660 | 4956 ft | 190 kts | 174° |
| 2026-05-05 10:29 | 43.93378 | -79.37055 | 4996 ft | 185 kts | 207° |
| 2026-05-05 10:29 | 43.92210 | -79.37904 | 5018 ft | 185 kts | 206° |
| 2026-05-05 10:29 | 43.90996 | -79.38574 | 5028 ft | 186 kts | 201° |
| 2026-05-05 10:29 | 43.89716 | -79.39095 | 5016 ft | 186 kts | 197° |
| 2026-05-05 10:30 | 43.88442 | -79.39484 | 5017 ft | 187 kts | 194° |
| 2026-05-05 10:30 | 43.87137 | -79.39798 | 5018 ft | 187 kts | 192° |
| 2026-05-05 10:30 | 43.85831 | -79.40147 | 4969 ft | 187 kts | 200° |
| 2026-05-05 10:30 | 43.84800 | -79.41221 | 5022 ft | 184 kts | 223° |
| 2026-05-05 10:31 | 43.83891 | -79.42461 | 4887 ft | 174 kts | 224° |
| 2026-05-05 10:31 | 43.83014 | -79.43686 | 4224 ft | 181 kts | 224° |
| 2026-05-05 10:31 | 43.82119 | -79.44954 | 3586 ft | 184 kts | 225° |
| 2026-05-05 10:31 | 43.81220 | -79.46242 | 3071 ft | 185 kts | 225° |
| 2026-05-05 10:32 | 43.80322 | -79.47524 | 3036 ft | 174 kts | 225° |
| 2026-05-05 10:32 | 43.79472 | -79.48761 | 3016 ft | 172 kts | 225° |
| 2026-05-05 10:32 | 43.78633 | -79.49984 | 3017 ft | 171 kts | 225° |
| 2026-05-05 10:32 | 43.77832 | -79.51153 | 2954 ft | 164 kts | 225° |
| 2026-05-05 10:33 | 43.77050 | -79.52296 | 2725 ft | 153 kts | 225° |
| 2026-05-05 10:33 | 43.76331 | -79.53348 | 2522 ft | 147 kts | 225° |
| 2026-05-05 10:33 | 43.75618 | -79.54391 | 2336 ft | 146 kts | 225° |
| 2026-05-05 10:33 | 43.74920 | -79.55413 | 2146 ft | 144 kts | 225° |
| 2026-05-05 10:34 | 43.74214 | -79.56445 | 1955 ft | 146 kts | 225° |
| 2026-05-05 10:34 | 43.73511 | -79.57477 | 1759 ft | 144 kts | 225° |
| 2026-05-05 10:34 | 43.72826 | -79.58481 | 1567 ft | 144 kts | 224° |
| 2026-05-05 10:34 | 43.72126 | -79.59506 | 1369 ft | 143 kts | 225° |
| 2026-05-05 10:35 | 43.71451 | -79.60543 | 1076 ft | 143 kts | 223° |
| 2026-05-05 10:35 | 43.70743 | -79.61549 | 883 ft | 143 kts | 224° |
| 2026-05-05 10:35 | 43.70057 | -79.62560 | 754 ft | 146 kts | 224° |
| 2026-05-05 10:35 | 43.69354 | -79.63590 | 612 ft | 144 kts | 224° |
| 2026-05-05 10:36 | 43.68702 | -79.64535 | 551 ft | 116 kts | 220° |
| 2026-05-05 10:36 | 43.68245 | -79.65185 | 550 ft | 71 kts | 226° |
| 2026-05-05 10:36 | 43.67999 | -79.65535 | 563 ft | 33 kts | 226° |
| 2026-05-05 10:36 | 43.67916 | -79.65659 | 567 ft | 19 kts | 226° |
| 2026-05-05 10:37 | 43.67778 | -79.65863 | 570 ft | 32 kts | 225° |
| 2026-05-05 10:37 | 43.67624 | -79.66092 | 572 ft | 24 kts | 226° |
| 2026-05-05 10:37 | 43.67507 | -79.66260 | 570 ft | 20 kts | 220° |
| 2026-05-05 10:37 | 43.67385 | -79.66234 | 570 ft | 18 kts | 143° |
| 2026-05-05 10:38 | 43.67357 | -79.66094 | 572 ft | 16 kts | 58° |
| 2026-05-05 10:38 | 43.67403 | -79.66019 | 572 ft | 0 kts | 47° |
| 2026-05-05 10:38 | 43.67404 | -79.66017 | 572 ft | 0 kts | 47° |
| 2026-05-05 10:39 | 43.67406 | -79.66015 | 572 ft | 0 kts | 47° |
| 2026-05-05 10:39 | 43.67406 | -79.66013 | 572 ft | 0 kts | 47° |
| 2026-05-05 10:39 | 43.67413 | -79.66003 | 572 ft | 4 kts | 46° |
| 2026-05-05 10:40 | 43.67448 | -79.65953 | 572 ft | 10 kts | 46° |
| 2026-05-05 10:40 | 43.67513 | -79.65859 | 571 ft | 16 kts | 46° |
| 2026-05-05 10:40 | 43.67593 | -79.65743 | 570 ft | 15 kts | 46° |
| 2026-05-05 10:40 | 43.67680 | -79.65619 | 567 ft | 19 kts | 46° |
| 2026-05-05 10:41 | 43.67771 | -79.65485 | 564 ft | 21 kts | 45° |
| 2026-05-05 10:41 | 43.67885 | -79.65320 | 557 ft | 27 kts | 46° |
| 2026-05-05 10:41 | 43.68000 | -79.65153 | 551 ft | 25 kts | 46° |
| 2026-05-05 10:41 | 43.68126 | -79.64970 | 544 ft | 22 kts | 44° |
| 2026-05-05 10:42 | 43.68356 | -79.64635 | 543 ft | 22 kts | 46° |
| 2026-05-05 10:42 | 43.68469 | -79.64471 | 545 ft | 23 kts | 46° |
| 2026-05-05 10:42 | 43.68589 | -79.64297 | 544 ft | 22 kts | 46° |
| 2026-05-05 10:43 | 43.68712 | -79.64118 | 545 ft | 28 kts | 46° |
| 2026-05-05 10:43 | 43.68831 | -79.63944 | 547 ft | 21 kts | 45° |
| 2026-05-05 10:43 | 43.68935 | -79.63792 | 550 ft | 21 kts | 46° |
| 2026-05-05 10:43 | 43.69020 | -79.63673 | 549 ft | 6 kts | 44° |
| 2026-05-05 10:44 | 43.69027 | -79.63644 | 550 ft | 4 kts | 95° |
| 2026-05-05 10:44 | 43.69017 | -79.63600 | 551 ft | 5 kts | 122° |
| 2026-05-05 10:44 | 43.68982 | -79.63554 | 553 ft | 8 kts | 136° |
| 2026-05-05 10:44 | 43.68932 | -79.63489 | 556 ft | 11 kts | 137° |
| 2026-05-05 10:45 | 43.68861 | -79.63397 | 557 ft | 15 kts | 136° |
| 2026-05-05 10:45 | 43.68834 | -79.63290 | 559 ft | 9 kts | 78° |
| 2026-05-05 10:45 | 43.68821 | -79.63197 | 561 ft | 11 kts | 137° |
| 2026-05-05 10:45 | 43.68752 | -79.63108 | 562 ft | 16 kts | 136° |
| 2026-05-05 10:46 | 43.68662 | -79.62990 | 562 ft | 19 kts | 137° |
| 2026-05-05 10:46 | 43.68574 | -79.62878 | 564 ft | 14 kts | 136° |
| 2026-05-05 10:46 | 43.68520 | -79.62806 | 566 ft | 7 kts | 136° |
| 2026-05-05 10:46 | 43.68471 | -79.62743 | 568 ft | 11 kts | 137° |
| 2026-05-05 10:47 | 43.68406 | -79.62657 | 570 ft | 14 kts | 136° |
| 2026-05-05 10:47 | 43.68322 | -79.62548 | 574 ft | 16 kts | 135° |
| 2026-05-05 10:47 | 43.68272 | -79.62464 | 576 ft | 12 kts | 108° |
| 2026-05-05 10:47 | 43.68296 | -79.62360 | 576 ft | 11 kts | 67° |
| 2026-05-05 10:48 | 43.68286 | -79.62326 | 576 ft | 4 kts | 152° |
| 2026-05-05 10:48 | 43.68259 | -79.62299 | 576 ft | 3 kts | 126° |
| 2026-05-05 10:48 | 43.68251 | -79.62246 | 577 ft | 8 kts | 92° |
| 2026-05-05 10:48 | 43.68251 | -79.62173 | 577 ft | 2 kts | 89° |
| 2026-05-05 10:49 | 43.68251 | -79.62150 | 577 ft | 0 kts | 89° |